• Join FlightAware (Why Join?)
  • Login
  • US Flag 
02:52AM EDT


 

Airport Tracker/Info


-or-


 

Live Flight TrackerFlight Track Log ✈ UAL1630 ✈ 26-Jun-2013 ✈ KCLE - KBOS

Flight Track Log - Related Links

Times and Time Zones

All times are in EDT time to prevent confusion due to time zone crossing. See the UAL1630 flight status page for this flight to view local times or setup timezone preferences in your user account.

Time Position Orientation Groundspeed Altitude Reporting Facility
EDT Latitude Longitude Course Direction KTS MPH feet Rate Location/Type
03:44PM 41.4220 -81.8310 49° Northeast 185 213 1,500  Level FlightAware
03:45PM 41.4340 -81.8200 34° Northeast 189 217 2,000 1,620 Climbing FlightAware
03:45PM 41.4550 -81.8060 27° Northeast 218 251 2,600 1,800 Climbing FlightAware
03:46PM 41.4910 -81.7820 27° Northeast 254 292 3,800 2,160 Climbing FlightAware
03:46PM 41.4990 -81.7760 29° Northeast 256 295 4,200 2,520 Climbing FlightAware
03:46PM 41.5360 -81.7480 30° Northeast 278 320 5,600 2,700 Climbing FlightAware
03:47PM 41.5630 -81.7200 38° Northeast 285 328 6,900 2,880 Climbing FlightAware
03:47PM 41.5880 -81.6920 40° Northeast 291 335 8,100 2,640 Climbing FlightAware
03:48PM 41.6200 -81.6570 39° Northeast 302 348 9,400 2,700 Climbing FlightAware
03:48PM 41.6660 -81.6070 39° Northeast 310 357 11,300 2,700 Climbing FlightAware
03:49PM 41.7140 -81.5550 39° Northeast 317 365 13,200 2,580 Climbing FlightAware
03:49PM 41.7400 -81.5090 53° Northeast 324 373 14,500 2,460 Climbing FlightAware
03:50PM 41.7530 -81.4270 78° East 334 384 16,100 2,160 Climbing FlightAware
03:51PM 41.7660 -81.3520 77° East 345 397 17,300 2,160 Climbing FlightAware
03:52PM 41.7830 -81.2450 78° East 354 407 19,200 2,100 Climbing FlightAware
03:52PM 41.7970 -81.1630 77° East 359 413 20,400 2,100 Climbing FlightAware
03:53PM 41.8100 -81.0800 78° East 352 405 22,000 2,100 Climbing FlightAware
03:54PM 41.8260 -80.9840 77° East 355 409 23,400 1,560 Climbing FlightAware
03:54PM 41.8400 -80.8950 78° East 371 427 24,200 1,080 Climbing FlightAware
03:55PM 41.8540 -80.8090 78° East 383 441 25,000 1,320 Climbing FlightAware
03:56PM 41.8760 -80.6690 78° East 395 455 26,400 1,440 Climbing FlightAware
03:57PM 41.8920 -80.5680 78° East 401 461 27,400 1,380 Climbing FlightAware
03:57PM 41.9070 -80.4740 78° East 406 467 28,300 1,500 Climbing FlightAware
03:58PM 41.9250 -80.3610 78° East 406 467 29,400 1,320 Climbing FlightAware
03:59PM 41.9400 -80.2660 78° East 408 470 30,200 1,140 Climbing FlightAware
03:59PM 41.9550 -80.1630 79° East 411 473 31,000 1,080 Climbing FlightAware
04:00PM 41.9720 -80.0520 78° East 416 479 31,800 1,080 Climbing FlightAware
04:01PM 41.9900 -79.9370 78° East 421 484 32,600 780 Climbing FlightAware
04:02PM 42.0190 -79.8310 70° East 426 490 33,000 240 Climbing FlightAware
04:02PM 42.0490 -79.7300 68° East 438 504 33,000  Level FlightAware
04:03PM 42.0820 -79.6220 68° East 446 513 33,000  Level FlightAware
04:04PM 42.1130 -79.5190 68° East 446 513 33,000  Level FlightAware
04:04PM 42.1440 -79.4160 68° East 447 514 33,000  Level FlightAware
04:05PM 42.1770 -79.2990 69° East 449 517 33,000  Level FlightAware
04:06PM 42.1960 -79.1640 79° East 453 521 33,000  Level FlightAware
04:06PM 42.2090 -79.0580 81° East 455 524 33,000  Level FlightAware
04:07PM 42.2240 -78.9340 81° East 455 524 33,000  Level FlightAware
04:08PM 42.2380 -78.8250 80° East 456 525 33,000  Level FlightAware
04:09PM 42.2530 -78.6950 81° East 457 526 33,000  Level FlightAware
04:09PM 42.2670 -78.5870 80° East 457 526 33,000  Level FlightAware
04:10PM 42.2870 -78.4240 81° East 458 527 33,000  Level FlightAware
04:11PM 42.3010 -78.3000 81° East 457 526 33,000  Level FlightAware
04:12PM 42.3140 -78.1900 81° East 456 525 33,000  Level FlightAware
04:12PM 42.3270 -78.0800 81° East 457 526 33,000  Level FlightAware
04:13PM 42.3430 -77.9450 81° East 457 526 33,000  Level FlightAware
04:14PM 42.3570 -77.8300 81° East 459 528 33,000  Level FlightAware
04:14PM 42.3690 -77.7230 81° East 461 531 33,000  Level FlightAware
04:15PM 42.3820 -77.6100 81° East 462 532 33,000  Level FlightAware
04:16PM 42.3970 -77.4710 82° East 463 533 33,000  Level FlightAware
04:16PM 42.4100 -77.3590 81° East 462 532 33,000  Level FlightAware
04:17PM 42.4230 -77.2380 82° East 461 531 33,000  Level FlightAware
04:18PM 42.4370 -77.1140 81° East 460 529 33,000  Level FlightAware
04:19PM 42.4500 -76.9900 82° East 459 528 33,000  Level FlightAware
04:19PM 42.4630 -76.8750 81° East 462 532 33,000  Level FlightAware
04:20PM 42.4750 -76.7550 82° East 464 534 33,000  Level FlightAware
04:21PM 42.4880 -76.6330 82° East 469 540 33,000  Level FlightAware
04:21PM 42.5010 -76.5050 82° East 474 545 33,000  Level FlightAware
04:22PM 42.5140 -76.3790 82° East 475 547 33,000  Level FlightAware
04:23PM 42.5360 -76.2740 74° East 468 539 33,000  Level FlightAware
04:24PM 42.5800 -76.1600 62° Northeast 468 539 33,000  Level FlightAware
04:24PM 42.6250 -76.0520 60° Northeast 470 541 33,000  Level FlightAware
04:25PM 42.6670 -75.9480 61° Northeast 471 542 33,000  Level FlightAware
04:26PM 42.7130 -75.8320 62° Northeast 472 543 33,000  Level FlightAware
04:26PM 42.7310 -75.7180 78° East 481 554 33,000  Level FlightAware
04:27PM 42.7260 -75.5910 93° East 482 555 33,000  Level FlightAware
04:28PM 42.7200 -75.4520 93° East 485 558 33,000  Level FlightAware
04:28PM 42.7160 -75.3360 93° East 487 560 33,000  Level FlightAware
04:29PM 42.7100 -75.1990 93° East 489 563 33,000  Level FlightAware
04:33PM 42.6840 -74.5630 93° East 499 574 33,000 -60 Level FlightAware
04:33PM 42.6760 -74.3940 94° East 499 574 32,800 -660 Descending FlightAware
04:34PM 42.6700 -74.2580 93° East 496 571 32,100 -1,020 Descending FlightAware
04:35PM 42.6640 -74.1300 94° East 494 568 31,400 -1,080 Descending FlightAware
04:36PM 42.6580 -74.0030 94° East 492 566 30,700 -1,020 Descending FlightAware
04:36PM 42.6520 -73.8900 94° East 485 558 30,100 -660 Descending FlightAware
04:37PM 42.6460 -73.7810 94° East 482 555 29,900 -540 Descending FlightAware
04:38PM 42.6430 -73.7170 94° East 477 549 29,300 -1,320 Descending FlightAware
04:38PM 42.6320 -73.5080 94° East 468 539 28,000 -1,500 Descending FlightAware
04:39PM 42.6250 -73.3790 94° East 467 537 27,300 -1,020 Descending FlightAware
04:42PM 42.6000 -72.9280 94° East 438 504 24,600 -900 Descending FlightAware
04:43PM 42.5930 -72.8080 94° East 437 503 24,200 -1,080 Descending FlightAware
04:43PM 42.5850 -72.6820 95° East 430 495 23,000 -1,440 Descending FlightAware
04:44PM 42.5780 -72.5700 95° East 424 488 22,300 -1,140 Descending FlightAware
04:45PM 42.5720 -72.4620 94° East 422 486 21,500 -1,620 Descending FlightAware
04:45PM 42.5640 -72.3440 95° East 415 478 20,000 -1,860 Descending FlightAware
04:46PM 42.5580 -72.2460 95° East 409 471 18,900 -1,860 Descending FlightAware
04:47PM 42.5500 -72.1240 95° East 401 461 17,400 -1,800 Descending FlightAware
04:47PM 42.5430 -72.0250 95° East 391 450 16,300 -1,740 Descending FlightAware
04:48PM 42.5340 -71.9300 97° East 384 442 15,100 -1,680 Descending FlightAware
04:49PM 42.5250 -71.8210 96° East 372 428 13,900 -1,200 Descending FlightAware
04:49PM 42.5180 -71.7410 97° East 345 397 13,500 -900 Descending FlightAware
04:50PM 42.5110 -71.6590 97° East 330 380 12,800 -1,260 Descending FlightAware
04:51PM 42.4990 -71.5040 96° East 317 365 11,100 -1,140 Descending FlightAware
04:52PM 42.4930 -71.4270 96° East 321 369 10,600 -1,080 Descending FlightAware
04:52PM 42.4890 -71.3780 96° East 321 369 10,000 -1,500 Descending FlightAware
04:53PM 42.4860 -71.3380 96° East 317 365 9,500 -1,500 Descending FlightAware
04:53PM 42.4810 -71.2820 97° East 316 364 8,800 -1,500 Descending FlightAware
04:54PM 42.4770 -71.2240 95° East 315 362 8,100 -1,440 Descending FlightAware
04:54PM 42.4720 -71.1730 98° East 313 360 7,500 -1,320 Descending FlightAware
04:55PM 42.4610 -71.1350 111° Southeast 308 354 7,000 -1,200 Descending FlightAware
04:55PM 42.4420 -71.0730 113° Southeast 299 344 6,400 -840 Descending FlightAware
04:56PM 42.4270 -71.0230 112° Southeast 280 322 6,200 -300 Descending FlightAware
04:56PM 42.4120 -70.9700 111° Southeast 263 303 6,100 -120 Descending FlightAware
04:56PM 42.4020 -70.9500 124° Southeast 246 283 6,100  Level FlightAware
04:57PM 42.3870 -70.9370 147° Southeast 234 269 6,100  Level FlightAware
04:57PM 42.3720 -70.9290 158° South 242 278 6,100  Level FlightAware
04:58PM 42.3250 -70.9280 179° South 218 251 6,100  Level FlightAware
04:58PM 42.3020 -70.9380 198° South 222 255 6,100 -480 Level FlightAware
04:59PM 42.2760 -70.9500 199° South 222 255 5,700 -1,200 Descending FlightAware
04:59PM 42.2560 -70.9590 198° South 223 257 5,200 -1,500 Descending FlightAware
04:59PM 42.2350 -70.9680 198° South 220 253 4,700 -1,440 Descending FlightAware
05:00PM 42.1667 -71.0000 198° South 218 251 3,000 -1,560 Descending KA90